sensor_id;sensor_type;location;lat;lon;timestamp;P1;durP1;ratioP1;P2;durP2;ratioP2
31966;SDS011;18496;52.042;6.812;2023-12-20T00:00:43;14.02;;;7.35;;
31966;SDS011;18496;52.042;6.812;2023-12-20T00:02:47;13.90;;;7.13;;
31966;SDS011;18496;52.042;6.812;2023-12-20T00:04:51;17.38;;;7.97;;
31966;SDS011;18496;52.042;6.812;2023-12-20T00:06:55;17.55;;;8.25;;
31966;SDS011;18496;52.042;6.812;2023-12-20T00:08:58;16.35;;;7.60;;
31966;SDS011;18496;52.042;6.812;2023-12-20T00:11:02;17.27;;;8.02;;
31966;SDS011;18496;52.042;6.812;2023-12-20T00:13:06;15.35;;;7.50;;
31966;SDS011;18496;52.042;6.812;2023-12-20T00:15:10;15.90;;;7.47;;
31966;SDS011;18496;52.042;6.812;2023-12-20T00:17:14;26.98;;;8.77;;
31966;SDS011;18496;52.042;6.812;2023-12-20T00:19:18;18.52;;;8.30;;
31966;SDS011;18496;52.042;6.812;2023-12-20T00:21:22;19.52;;;7.45;;
31966;SDS011;18496;52.042;6.812;2023-12-20T00:23:26;18.52;;;7.65;;
31966;SDS011;18496;52.042;6.812;2023-12-20T00:25:29;23.50;;;7.57;;
31966;SDS011;18496;52.042;6.812;2023-12-20T00:27:33;18.00;;;7.35;;
31966;SDS011;18496;52.042;6.812;2023-12-20T00:29:37;18.17;;;7.53;;
31966;SDS011;18496;52.042;6.812;2023-12-20T00:31:41;13.18;;;7.13;;
31966;SDS011;18496;52.042;6.812;2023-12-20T00:33:45;18.45;;;6.63;;
31966;SDS011;18496;52.042;6.812;2023-12-20T00:35:50;14.55;;;5.95;;
31966;SDS011;18496;52.042;6.812;2023-12-20T00:37:53;18.02;;;6.32;;
31966;SDS011;18496;52.042;6.812;2023-12-20T00:39:57;17.58;;;5.40;;
31966;SDS011;18496;52.042;6.812;2023-12-20T00:42:01;23.42;;;6.15;;
31966;SDS011;18496;52.042;6.812;2023-12-20T00:44:05;14.35;;;5.63;;
31966;SDS011;18496;52.042;6.812;2023-12-20T00:46:08;20.55;;;5.53;;
31966;SDS011;18496;52.042;6.812;2023-12-20T00:48:12;10.65;;;4.97;;
31966;SDS011;18496;52.042;6.812;2023-12-20T00:50:16;20.73;;;6.10;;
31966;SDS011;18496;52.042;6.812;2023-12-20T00:52:20;11.80;;;5.20;;
31966;SDS011;18496;52.042;6.812;2023-12-20T00:54:25;12.98;;;3.85;;
31966;SDS011;18496;52.042;6.812;2023-12-20T00:56:29;13.02;;;4.45;;
31966;SDS011;18496;52.042;6.812;2023-12-20T00:58:33;19.02;;;4.72;;
31966;SDS011;18496;52.042;6.812;2023-12-20T01:00:36;10.40;;;4.00;;
31966;SDS011;18496;52.042;6.812;2023-12-20T01:02:41;14.20;;;4.68;;
31966;SDS011;18496;52.042;6.812;2023-12-20T01:04:44;18.45;;;3.85;;
31966;SDS011;18496;52.042;6.812;2023-12-20T01:06:48;16.00;;;3.58;;
31966;SDS011;18496;52.042;6.812;2023-12-20T01:08:52;14.85;;;3.45;;
31966;SDS011;18496;52.042;6.812;2023-12-20T01:10:56;11.50;;;3.70;;
31966;SDS011;18496;52.042;6.812;2023-12-20T01:12:59;12.57;;;3.70;;
31966;SDS011;18496;52.042;6.812;2023-12-20T01:15:03;14.65;;;3.88;;
31966;SDS011;18496;52.042;6.812;2023-12-20T01:17:07;16.98;;;3.58;;
31966;SDS011;18496;52.042;6.812;2023-12-20T01:19:12;12.68;;;3.30;;
31966;SDS011;18496;52.042;6.812;2023-12-20T01:21:16;12.52;;;2.78;;
31966;SDS011;18496;52.042;6.812;2023-12-20T01:23:20;13.93;;;2.75;;
31966;SDS011;18496;52.042;6.812;2023-12-20T01:25:24;13.73;;;2.75;;
31966;SDS011;18496;52.042;6.812;2023-12-20T01:27:28;13.38;;;2.50;;
31966;SDS011;18496;52.042;6.812;2023-12-20T01:29:32;17.85;;;2.85;;
31966;SDS011;18496;52.042;6.812;2023-12-20T01:31:36;13.43;;;3.22;;
31966;SDS011;18496;52.042;6.812;2023-12-20T01:33:39;18.23;;;2.72;;
31966;SDS011;18496;52.042;6.812;2023-12-20T01:35:43;15.80;;;3.30;;
31966;SDS011;18496;52.042;6.812;2023-12-20T01:37:47;16.40;;;2.53;;
31966;SDS011;18496;52.042;6.812;2023-12-20T01:39:51;18.05;;;3.10;;
31966;SDS011;18496;52.042;6.812;2023-12-20T01:41:55;13.40;;;2.80;;
31966;SDS011;18496;52.042;6.812;2023-12-20T01:43:58;12.45;;;2.88;;
31966;SDS011;18496;52.042;6.812;2023-12-20T01:46:02;8.75;;;2.80;;
31966;SDS011;18496;52.042;6.812;2023-12-20T01:48:07;14.48;;;2.75;;
31966;SDS011;18496;52.042;6.812;2023-12-20T01:50:12;16.08;;;2.78;;
31966;SDS011;18496;52.042;6.812;2023-12-20T01:52:16;13.40;;;2.45;;
31966;SDS011;18496;52.042;6.812;2023-12-20T01:54:20;13.90;;;2.58;;
31966;SDS011;18496;52.042;6.812;2023-12-20T01:56:25;15.15;;;2.70;;
31966;SDS011;18496;52.042;6.812;2023-12-20T01:58:31;13.25;;;2.45;;
31966;SDS011;18496;52.042;6.812;2023-12-20T02:00:35;9.77;;;2.45;;
31966;SDS011;18496;52.042;6.812;2023-12-20T02:02:40;18.77;;;2.90;;
31966;SDS011;18496;52.042;6.812;2023-12-20T02:04:44;12.85;;;2.95;;
31966;SDS011;18496;52.042;6.812;2023-12-20T02:06:49;14.68;;;2.83;;
31966;SDS011;18496;52.042;6.812;2023-12-20T02:08:56;15.55;;;3.53;;
31966;SDS011;18496;52.042;6.812;2023-12-20T02:11:00;13.18;;;3.03;;
31966;SDS011;18496;52.042;6.812;2023-12-20T02:13:04;14.50;;;2.72;;
31966;SDS011;18496;52.042;6.812;2023-12-20T02:15:08;16.52;;;3.67;;
31966;SDS011;18496;52.042;6.812;2023-12-20T02:17:12;21.95;;;3.53;;
31966;SDS011;18496;52.042;6.812;2023-12-20T02:19:16;18.45;;;3.35;;
31966;SDS011;18496;52.042;6.812;2023-12-20T02:21:31;14.25;;;3.20;;
31966;SDS011;18496;52.042;6.812;2023-12-20T02:23:36;11.93;;;2.92;;
31966;SDS011;18496;52.042;6.812;2023-12-20T02:25:40;16.55;;;3.65;;
31966;SDS011;18496;52.042;6.812;2023-12-20T02:27:44;10.90;;;2.65;;
31966;SDS011;18496;52.042;6.812;2023-12-20T02:29:48;10.07;;;3.50;;
31966;SDS011;18496;52.042;6.812;2023-12-20T02:31:53;15.57;;;3.78;;
31966;SDS011;18496;52.042;6.812;2023-12-20T02:33:57;15.50;;;3.25;;
31966;SDS011;18496;52.042;6.812;2023-12-20T02:36:01;14.88;;;4.03;;
31966;SDS011;18496;52.042;6.812;2023-12-20T02:38:05;15.52;;;3.60;;
31966;SDS011;18496;52.042;6.812;2023-12-20T02:40:08;19.80;;;3.45;;
31966;SDS011;18496;52.042;6.812;2023-12-20T02:42:13;19.40;;;4.15;;
31966;SDS011;18496;52.042;6.812;2023-12-20T02:44:17;18.38;;;3.58;;
31966;SDS011;18496;52.042;6.812;2023-12-20T02:46:21;13.75;;;3.45;;
31966;SDS011;18496;52.042;6.812;2023-12-20T02:48:26;11.68;;;3.65;;
31966;SDS011;18496;52.042;6.812;2023-12-20T02:50:30;20.45;;;3.85;;
31966;SDS011;18496;52.042;6.812;2023-12-20T02:52:33;25.05;;;4.68;;
31966;SDS011;18496;52.042;6.812;2023-12-20T02:54:37;18.85;;;3.30;;
31966;SDS011;18496;52.042;6.812;2023-12-20T02:56:41;17.13;;;4.18;;
31966;SDS011;18496;52.042;6.812;2023-12-20T02:58:45;17.42;;;2.80;;
31966;SDS011;18496;52.042;6.812;2023-12-20T03:00:48;17.70;;;3.08;;
31966;SDS011;18496;52.042;6.812;2023-12-20T03:02:52;17.23;;;3.30;;
31966;SDS011;18496;52.042;6.812;2023-12-20T03:04:56;13.68;;;3.35;;
31966;SDS011;18496;52.042;6.812;2023-12-20T03:07:00;24.17;;;3.75;;
31966;SDS011;18496;52.042;6.812;2023-12-20T03:09:03;17.45;;;3.22;;
31966;SDS011;18496;52.042;6.812;2023-12-20T03:11:07;23.65;;;3.90;;
31966;SDS011;18496;52.042;6.812;2023-12-20T03:13:11;20.73;;;3.28;;
31966;SDS011;18496;52.042;6.812;2023-12-20T03:15:15;16.63;;;3.45;;
31966;SDS011;18496;52.042;6.812;2023-12-20T03:17:19;11.18;;;2.08;;
31966;SDS011;18496;52.042;6.812;2023-12-20T03:19:23;15.43;;;3.10;;
31966;SDS011;18496;52.042;6.812;2023-12-20T03:21:27;20.13;;;3.35;;
31966;SDS011;18496;52.042;6.812;2023-12-20T03:23:31;23.63;;;3.50;;
31966;SDS011;18496;52.042;6.812;2023-12-20T03:25:38;20.15;;;3.33;;
31966;SDS011;18496;52.042;6.812;2023-12-20T03:27:42;29.90;;;4.18;;
31966;SDS011;18496;52.042;6.812;2023-12-20T03:29:45;17.65;;;3.33;;
31966;SDS011;18496;52.042;6.812;2023-12-20T03:31:49;21.80;;;4.05;;
31966;SDS011;18496;52.042;6.812;2023-12-20T03:33:53;18.08;;;3.28;;
31966;SDS011;18496;52.042;6.812;2023-12-20T03:35:57;22.92;;;3.50;;
31966;SDS011;18496;52.042;6.812;2023-12-20T03:38:01;15.95;;;2.85;;
31966;SDS011;18496;52.042;6.812;2023-12-20T03:40:04;19.27;;;2.88;;
31966;SDS011;18496;52.042;6.812;2023-12-20T03:42:09;12.98;;;3.30;;
31966;SDS011;18496;52.042;6.812;2023-12-20T03:44:12;15.35;;;3.85;;
31966;SDS011;18496;52.042;6.812;2023-12-20T03:46:16;17.23;;;3.67;;
31966;SDS011;18496;52.042;6.812;2023-12-20T03:48:20;21.73;;;3.70;;
31966;SDS011;18496;52.042;6.812;2023-12-20T03:50:24;15.90;;;3.78;;
31966;SDS011;18496;52.042;6.812;2023-12-20T03:52:30;17.65;;;3.78;;
31966;SDS011;18496;52.042;6.812;2023-12-20T03:54:34;17.27;;;4.15;;
31966;SDS011;18496;52.042;6.812;2023-12-20T03:56:38;24.30;;;3.65;;
31966;SDS011;18496;52.042;6.812;2023-12-20T03:58:42;19.77;;;4.10;;
31966;SDS011;18496;52.042;6.812;2023-12-20T04:00:46;22.42;;;3.92;;
31966;SDS011;18496;52.042;6.812;2023-12-20T04:02:50;21.55;;;4.95;;
31966;SDS011;18496;52.042;6.812;2023-12-20T04:04:57;27.65;;;4.03;;
31966;SDS011;18496;52.042;6.812;2023-12-20T04:07:00;21.73;;;5.25;;
31966;SDS011;18496;52.042;6.812;2023-12-20T04:09:04;17.58;;;4.55;;
31966;SDS011;18496;52.042;6.812;2023-12-20T04:11:08;25.95;;;5.68;;
31966;SDS011;18496;52.042;6.812;2023-12-20T04:13:12;17.20;;;4.70;;
31966;SDS011;18496;52.042;6.812;2023-12-20T04:15:15;21.00;;;4.95;;
31966;SDS011;18496;52.042;6.812;2023-12-20T04:17:19;21.13;;;4.70;;
31966;SDS011;18496;52.042;6.812;2023-12-20T04:19:25;17.90;;;4.30;;
31966;SDS011;18496;52.042;6.812;2023-12-20T04:21:29;29.65;;;4.40;;
31966;SDS011;18496;52.042;6.812;2023-12-20T04:23:33;20.38;;;5.60;;
31966;SDS011;18496;52.042;6.812;2023-12-20T04:25:37;17.85;;;4.68;;
31966;SDS011;18496;52.042;6.812;2023-12-20T04:27:40;26.80;;;5.53;;
31966;SDS011;18496;52.042;6.812;2023-12-20T04:29:44;23.38;;;4.53;;
31966;SDS011;18496;52.042;6.812;2023-12-20T04:31:48;18.42;;;4.07;;
31966;SDS011;18496;52.042;6.812;2023-12-20T04:33:54;29.30;;;4.57;;
31966;SDS011;18496;52.042;6.812;2023-12-20T04:35:58;22.00;;;5.03;;
31966;SDS011;18496;52.042;6.812;2023-12-20T04:38:03;18.58;;;4.53;;
31966;SDS011;18496;52.042;6.812;2023-12-20T04:40:07;23.42;;;4.90;;
31966;SDS011;18496;52.042;6.812;2023-12-20T04:42:11;27.77;;;5.05;;
31966;SDS011;18496;52.042;6.812;2023-12-20T04:44:15;20.85;;;4.15;;
31966;SDS011;18496;52.042;6.812;2023-12-20T04:46:19;22.50;;;4.07;;
31966;SDS011;18496;52.042;6.812;2023-12-20T04:48:22;12.82;;;4.38;;
31966;SDS011;18496;52.042;6.812;2023-12-20T04:50:26;20.02;;;5.40;;
31966;SDS011;18496;52.042;6.812;2023-12-20T04:52:30;22.67;;;4.60;;
31966;SDS011;18496;52.042;6.812;2023-12-20T04:54:34;21.60;;;4.53;;
31966;SDS011;18496;52.042;6.812;2023-12-20T04:56:38;20.30;;;4.40;;
31966;SDS011;18496;52.042;6.812;2023-12-20T04:58:44;29.00;;;4.32;;
31966;SDS011;18496;52.042;6.812;2023-12-20T05:00:48;25.98;;;4.75;;
31966;SDS011;18496;52.042;6.812;2023-12-20T05:02:52;25.40;;;3.83;;
31966;SDS011;18496;52.042;6.812;2023-12-20T05:04:56;14.45;;;4.28;;
31966;SDS011;18496;52.042;6.812;2023-12-20T05:07:00;27.88;;;4.93;;
31966;SDS011;18496;52.042;6.812;2023-12-20T05:09:04;23.55;;;4.32;;
31966;SDS011;18496;52.042;6.812;2023-12-20T05:11:07;21.63;;;3.95;;
31966;SDS011;18496;52.042;6.812;2023-12-20T05:13:11;30.90;;;5.60;;
31966;SDS011;18496;52.042;6.812;2023-12-20T05:15:15;22.48;;;4.00;;
31966;SDS011;18496;52.042;6.812;2023-12-20T05:17:19;25.05;;;4.82;;
31966;SDS011;18496;52.042;6.812;2023-12-20T05:19:23;17.42;;;4.30;;
31966;SDS011;18496;52.042;6.812;2023-12-20T05:21:27;31.92;;;5.88;;
31966;SDS011;18496;52.042;6.812;2023-12-20T05:23:31;19.88;;;4.57;;
31966;SDS011;18496;52.042;6.812;2023-12-20T05:25:35;27.23;;;5.07;;
31966;SDS011;18496;52.042;6.812;2023-12-20T05:27:39;23.42;;;4.45;;
31966;SDS011;18496;52.042;6.812;2023-12-20T05:29:43;17.83;;;4.15;;
31966;SDS011;18496;52.042;6.812;2023-12-20T05:31:47;20.55;;;3.97;;
31966;SDS011;18496;52.042;6.812;2023-12-20T05:33:51;20.20;;;4.03;;
31966;SDS011;18496;52.042;6.812;2023-12-20T05:35:54;15.35;;;2.90;;
31966;SDS011;18496;52.042;6.812;2023-12-20T05:37:58;30.83;;;4.95;;
31966;SDS011;18496;52.042;6.812;2023-12-20T05:40:02;28.27;;;4.40;;
31966;SDS011;18496;52.042;6.812;2023-12-20T05:42:07;24.40;;;4.57;;
31966;SDS011;18496;52.042;6.812;2023-12-20T05:44:11;24.23;;;4.07;;
31966;SDS011;18496;52.042;6.812;2023-12-20T05:46:15;23.40;;;4.50;;
31966;SDS011;18496;52.042;6.812;2023-12-20T05:48:18;17.60;;;4.07;;
31966;SDS011;18496;52.042;6.812;2023-12-20T05:50:22;20.08;;;4.07;;
31966;SDS011;18496;52.042;6.812;2023-12-20T05:52:29;31.30;;;4.50;;
31966;SDS011;18496;52.042;6.812;2023-12-20T05:54:33;21.40;;;4.60;;
31966;SDS011;18496;52.042;6.812;2023-12-20T05:56:37;26.17;;;3.92;;
31966;SDS011;18496;52.042;6.812;2023-12-20T05:58:41;15.57;;;4.05;;
31966;SDS011;18496;52.042;6.812;2023-12-20T06:00:45;30.23;;;4.53;;
31966;SDS011;18496;52.042;6.812;2023-12-20T06:02:48;23.67;;;4.43;;
31966;SDS011;18496;52.042;6.812;2023-12-20T06:04:52;25.23;;;3.75;;
31966;SDS011;18496;52.042;6.812;2023-12-20T06:06:56;24.77;;;4.22;;
31966;SDS011;18496;52.042;6.812;2023-12-20T06:09:00;20.65;;;4.10;;
31966;SDS011;18496;52.042;6.812;2023-12-20T06:11:06;20.50;;;4.90;;
31966;SDS011;18496;52.042;6.812;2023-12-20T06:13:09;23.25;;;4.40;;
31966;SDS011;18496;52.042;6.812;2023-12-20T06:15:13;18.23;;;4.13;;
31966;SDS011;18496;52.042;6.812;2023-12-20T06:17:17;25.58;;;4.32;;
31966;SDS011;18496;52.042;6.812;2023-12-20T06:19:21;26.30;;;4.65;;
31966;SDS011;18496;52.042;6.812;2023-12-20T06:21:24;21.95;;;4.88;;
31966;SDS011;18496;52.042;6.812;2023-12-20T06:23:28;23.27;;;4.38;;
31966;SDS011;18496;52.042;6.812;2023-12-20T06:25:32;33.92;;;5.00;;
31966;SDS011;18496;52.042;6.812;2023-12-20T06:27:35;18.50;;;4.30;;
31966;SDS011;18496;52.042;6.812;2023-12-20T06:29:39;24.30;;;3.92;;
31966;SDS011;18496;52.042;6.812;2023-12-20T06:31:44;19.38;;;4.80;;
31966;SDS011;18496;52.042;6.812;2023-12-20T06:33:47;22.77;;;4.70;;
31966;SDS011;18496;52.042;6.812;2023-12-20T06:36:00;16.85;;;4.22;;
31966;SDS011;18496;52.042;6.812;2023-12-20T06:38:04;21.10;;;4.78;;
31966;SDS011;18496;52.042;6.812;2023-12-20T06:40:09;22.08;;;4.63;;
31966;SDS011;18496;52.042;6.812;2023-12-20T06:42:13;17.58;;;3.75;;
31966;SDS011;18496;52.042;6.812;2023-12-20T06:44:17;18.20;;;3.90;;
31966;SDS011;18496;52.042;6.812;2023-12-20T06:46:21;21.02;;;3.58;;
31966;SDS011;18496;52.042;6.812;2023-12-20T06:48:24;29.38;;;4.72;;
31966;SDS011;18496;52.042;6.812;2023-12-20T06:50:28;26.65;;;5.05;;
31966;SDS011;18496;52.042;6.812;2023-12-20T06:52:32;15.55;;;4.32;;
31966;SDS011;18496;52.042;6.812;2023-12-20T06:54:35;20.98;;;4.15;;
31966;SDS011;18496;52.042;6.812;2023-12-20T06:56:39;25.45;;;4.13;;
31966;SDS011;18496;52.042;6.812;2023-12-20T06:58:44;24.80;;;4.38;;
31966;SDS011;18496;52.042;6.812;2023-12-20T07:00:48;24.08;;;4.60;;
31966;SDS011;18496;52.042;6.812;2023-12-20T07:02:52;20.30;;;4.03;;
31966;SDS011;18496;52.042;6.812;2023-12-20T07:04:56;25.35;;;4.95;;
31966;SDS011;18496;52.042;6.812;2023-12-20T07:07:00;19.08;;;3.92;;
31966;SDS011;18496;52.042;6.812;2023-12-20T07:09:04;24.02;;;3.70;;
31966;SDS011;18496;52.042;6.812;2023-12-20T07:11:08;26.52;;;4.07;;
31966;SDS011;18496;52.042;6.812;2023-12-20T07:13:11;19.15;;;4.20;;
31966;SDS011;18496;52.042;6.812;2023-12-20T07:15:15;22.00;;;3.60;;
31966;SDS011;18496;52.042;6.812;2023-12-20T07:17:19;25.75;;;4.40;;
31966;SDS011;18496;52.042;6.812;2023-12-20T07:19:24;26.25;;;4.38;;
31966;SDS011;18496;52.042;6.812;2023-12-20T07:21:28;24.77;;;5.00;;
31966;SDS011;18496;52.042;6.812;2023-12-20T07:23:32;15.88;;;4.60;;
31966;SDS011;18496;52.042;6.812;2023-12-20T07:25:35;21.17;;;4.47;;
31966;SDS011;18496;52.042;6.812;2023-12-20T07:27:39;19.02;;;3.47;;
31966;SDS011;18496;52.042;6.812;2023-12-20T07:29:43;29.25;;;5.55;;
31966;SDS011;18496;52.042;6.812;2023-12-20T07:31:47;19.73;;;4.32;;
31966;SDS011;18496;52.042;6.812;2023-12-20T07:33:51;23.77;;;4.65;;
31966;SDS011;18496;52.042;6.812;2023-12-20T07:35:55;26.92;;;4.43;;
31966;SDS011;18496;52.042;6.812;2023-12-20T07:37:58;29.17;;;4.38;;
31966;SDS011;18496;52.042;6.812;2023-12-20T07:40:02;17.33;;;3.97;;
31966;SDS011;18496;52.042;6.812;2023-12-20T07:42:07;16.27;;;3.72;;
31966;SDS011;18496;52.042;6.812;2023-12-20T07:44:11;25.70;;;5.10;;
31966;SDS011;18496;52.042;6.812;2023-12-20T07:46:15;23.27;;;4.85;;
31966;SDS011;18496;52.042;6.812;2023-12-20T07:48:18;24.65;;;4.35;;
31966;SDS011;18496;52.042;6.812;2023-12-20T07:50:22;22.70;;;5.03;;
31966;SDS011;18496;52.042;6.812;2023-12-20T07:52:26;16.05;;;3.70;;
31966;SDS011;18496;52.042;6.812;2023-12-20T07:54:29;32.63;;;4.45;;
31966;SDS011;18496;52.042;6.812;2023-12-20T07:56:33;16.77;;;4.00;;
31966;SDS011;18496;52.042;6.812;2023-12-20T07:58:37;24.20;;;4.55;;
31966;SDS011;18496;52.042;6.812;2023-12-20T08:00:41;25.02;;;4.68;;
31966;SDS011;18496;52.042;6.812;2023-12-20T08:02:44;26.02;;;4.05;;
31966;SDS011;18496;52.042;6.812;2023-12-20T08:04:49;24.10;;;5.07;;
31966;SDS011;18496;52.042;6.812;2023-12-20T08:06:53;23.25;;;4.43;;
31966;SDS011;18496;52.042;6.812;2023-12-20T08:08:56;21.42;;;5.25;;
31966;SDS011;18496;52.042;6.812;2023-12-20T08:11:00;21.85;;;4.88;;
31966;SDS011;18496;52.042;6.812;2023-12-20T08:13:05;28.55;;;5.10;;
31966;SDS011;18496;52.042;6.812;2023-12-20T08:15:09;36.67;;;6.18;;
31966;SDS011;18496;52.042;6.812;2023-12-20T08:17:13;28.63;;;5.50;;
31966;SDS011;18496;52.042;6.812;2023-12-20T08:19:19;26.38;;;4.35;;
31966;SDS011;18496;52.042;6.812;2023-12-20T08:21:23;17.95;;;4.55;;
31966;SDS011;18496;52.042;6.812;2023-12-20T08:23:26;21.25;;;4.35;;
31966;SDS011;18496;52.042;6.812;2023-12-20T08:25:33;24.90;;;5.68;;
31966;SDS011;18496;52.042;6.812;2023-12-20T08:27:40;27.17;;;5.25;;
31966;SDS011;18496;52.042;6.812;2023-12-20T08:29:44;21.33;;;4.93;;
31966;SDS011;18496;52.042;6.812;2023-12-20T08:31:53;24.63;;;4.18;;
31966;SDS011;18496;52.042;6.812;2023-12-20T08:33:59;14.57;;;4.15;;
31966;SDS011;18496;52.042;6.812;2023-12-20T08:36:03;24.13;;;4.28;;
31966;SDS011;18496;52.042;6.812;2023-12-20T08:38:08;17.60;;;4.03;;
31966;SDS011;18496;52.042;6.812;2023-12-20T08:40:12;19.52;;;4.18;;
31966;SDS011;18496;52.042;6.812;2023-12-20T08:42:16;21.27;;;4.32;;
31966;SDS011;18496;52.042;6.812;2023-12-20T08:44:23;25.20;;;5.10;;
31966;SDS011;18496;52.042;6.812;2023-12-20T08:46:27;24.50;;;4.25;;
31966;SDS011;18496;52.042;6.812;2023-12-20T08:48:30;18.23;;;4.13;;
31966;SDS011;18496;52.042;6.812;2023-12-20T08:50:34;17.77;;;4.82;;
31966;SDS011;18496;52.042;6.812;2023-12-20T08:52:38;35.05;;;4.70;;
31966;SDS011;18496;52.042;6.812;2023-12-20T08:54:42;21.73;;;4.75;;
31966;SDS011;18496;52.042;6.812;2023-12-20T08:56:46;28.25;;;4.32;;
31966;SDS011;18496;52.042;6.812;2023-12-20T08:58:49;27.08;;;4.85;;
31966;SDS011;18496;52.042;6.812;2023-12-20T09:00:53;21.75;;;4.93;;
31966;SDS011;18496;52.042;6.812;2023-12-20T09:02:57;25.00;;;4.18;;
31966;SDS011;18496;52.042;6.812;2023-12-20T09:05:00;20.80;;;4.15;;
31966;SDS011;18496;52.042;6.812;2023-12-20T09:07:05;21.80;;;4.05;;
31966;SDS011;18496;52.042;6.812;2023-12-20T09:09:08;20.35;;;4.57;;
31966;SDS011;18496;52.042;6.812;2023-12-20T09:11:16;20.58;;;4.28;;
31966;SDS011;18496;52.042;6.812;2023-12-20T09:13:20;19.42;;;4.53;;
31966;SDS011;18496;52.042;6.812;2023-12-20T09:15:25;21.08;;;5.35;;
31966;SDS011;18496;52.042;6.812;2023-12-20T09:17:30;45.53;;;6.03;;
31966;SDS011;18496;52.042;6.812;2023-12-20T09:19:34;24.63;;;5.13;;
31966;SDS011;18496;52.042;6.812;2023-12-20T09:21:37;28.52;;;5.53;;
31966;SDS011;18496;52.042;6.812;2023-12-20T09:23:41;20.80;;;4.55;;
31966;SDS011;18496;52.042;6.812;2023-12-20T09:25:45;24.70;;;4.25;;
31966;SDS011;18496;52.042;6.812;2023-12-20T09:27:49;15.65;;;4.30;;
31966;SDS011;18496;52.042;6.812;2023-12-20T09:29:52;21.13;;;5.28;;
31966;SDS011;18496;52.042;6.812;2023-12-20T09:31:56;26.92;;;5.45;;
31966;SDS011;18496;52.042;6.812;2023-12-20T09:34:00;25.55;;;3.75;;
31966;SDS011;18496;52.042;6.812;2023-12-20T09:36:04;18.38;;;5.15;;
31966;SDS011;18496;52.042;6.812;2023-12-20T09:38:08;25.35;;;4.90;;
31966;SDS011;18496;52.042;6.812;2023-12-20T09:40:13;22.35;;;5.15;;
31966;SDS011;18496;52.042;6.812;2023-12-20T09:42:19;25.20;;;5.20;;
31966;SDS011;18496;52.042;6.812;2023-12-20T09:44:29;23.77;;;4.93;;
31966;SDS011;18496;52.042;6.812;2023-12-20T09:46:34;23.13;;;4.07;;
31966;SDS011;18496;52.042;6.812;2023-12-20T09:48:43;28.33;;;4.63;;
31966;SDS011;18496;52.042;6.812;2023-12-20T09:50:48;19.10;;;4.03;;
31966;SDS011;18496;52.042;6.812;2023-12-20T09:52:53;24.40;;;4.70;;
31966;SDS011;18496;52.042;6.812;2023-12-20T09:54:59;18.33;;;4.30;;
31966;SDS011;18496;52.042;6.812;2023-12-20T09:57:09;24.48;;;5.88;;
31966;SDS011;18496;52.042;6.812;2023-12-20T09:59:13;15.10;;;4.85;;
31966;SDS011;18496;52.042;6.812;2023-12-20T10:01:17;28.45;;;5.78;;
31966;SDS011;18496;52.042;6.812;2023-12-20T10:03:23;27.55;;;4.47;;
31966;SDS011;18496;52.042;6.812;2023-12-20T10:05:29;28.83;;;5.63;;
31966;SDS011;18496;52.042;6.812;2023-12-20T10:07:35;17.05;;;4.63;;
31966;SDS011;18496;52.042;6.812;2023-12-20T10:09:39;24.23;;;4.85;;
31966;SDS011;18496;52.042;6.812;2023-12-20T10:11:43;23.65;;;4.47;;
31966;SDS011;18496;52.042;6.812;2023-12-20T10:13:47;21.02;;;4.78;;
31966;SDS011;18496;52.042;6.812;2023-12-20T10:15:52;30.17;;;5.47;;
31966;SDS011;18496;52.042;6.812;2023-12-20T10:18:05;12.63;;;3.95;;
31966;SDS011;18496;52.042;6.812;2023-12-20T10:20:09;24.15;;;4.95;;
31966;SDS011;18496;52.042;6.812;2023-12-20T10:22:13;18.35;;;5.22;;
31966;SDS011;18496;52.042;6.812;2023-12-20T10:24:18;25.88;;;5.35;;
31966;SDS011;18496;52.042;6.812;2023-12-20T10:26:22;27.27;;;4.97;;
31966;SDS011;18496;52.042;6.812;2023-12-20T10:28:32;27.58;;;5.25;;
31966;SDS011;18496;52.042;6.812;2023-12-20T10:30:37;27.73;;;5.35;;
31966;SDS011;18496;52.042;6.812;2023-12-20T10:32:42;22.77;;;4.63;;
31966;SDS011;18496;52.042;6.812;2023-12-20T10:34:45;18.98;;;4.20;;
31966;SDS011;18496;52.042;6.812;2023-12-20T10:36:49;19.65;;;4.88;;
31966;SDS011;18496;52.042;6.812;2023-12-20T10:38:53;13.93;;;3.65;;
31966;SDS011;18496;52.042;6.812;2023-12-20T10:40:58;19.45;;;4.07;;
31966;SDS011;18496;52.042;6.812;2023-12-20T10:43:04;16.60;;;4.05;;
31966;SDS011;18496;52.042;6.812;2023-12-20T10:45:08;19.60;;;5.10;;
31966;SDS011;18496;52.042;6.812;2023-12-20T10:47:12;20.08;;;4.25;;
31966;SDS011;18496;52.042;6.812;2023-12-20T10:49:17;18.63;;;3.83;;
31966;SDS011;18496;52.042;6.812;2023-12-20T10:51:21;14.90;;;5.07;;
31966;SDS011;18496;52.042;6.812;2023-12-20T10:53:27;27.05;;;5.53;;
31966;SDS011;18496;52.042;6.812;2023-12-20T10:55:30;23.45;;;5.13;;
31966;SDS011;18496;52.042;6.812;2023-12-20T10:57:35;20.15;;;3.78;;
31966;SDS011;18496;52.042;6.812;2023-12-20T10:59:39;11.93;;;4.65;;
31966;SDS011;18496;52.042;6.812;2023-12-20T11:01:44;18.10;;;4.85;;
31966;SDS011;18496;52.042;6.812;2023-12-20T11:03:50;14.68;;;4.30;;
31966;SDS011;18496;52.042;6.812;2023-12-20T11:08:10;25.83;;;5.70;;
31966;SDS011;18496;52.042;6.812;2023-12-20T11:10:20;23.13;;;5.28;;
31966;SDS011;18496;52.042;6.812;2023-12-20T11:14:52;21.92;;;5.20;;
31966;SDS011;18496;52.042;6.812;2023-12-20T11:17:09;27.48;;;4.28;;
31966;SDS011;18496;52.042;6.812;2023-12-20T11:19:19;21.55;;;5.40;;
31966;SDS011;18496;52.042;6.812;2023-12-20T11:21:22;18.77;;;4.70;;
31966;SDS011;18496;52.042;6.812;2023-12-20T11:23:26;19.73;;;4.78;;
31966;SDS011;18496;52.042;6.812;2023-12-20T11:25:30;27.17;;;5.65;;
31966;SDS011;18496;52.042;6.812;2023-12-20T11:28:09;21.83;;;4.38;;
31966;SDS011;18496;52.042;6.812;2023-12-20T11:30:13;31.00;;;5.68;;
31966;SDS011;18496;52.042;6.812;2023-12-20T11:34:29;23.70;;;4.80;;
31966;SDS011;18496;52.042;6.812;2023-12-20T11:36:36;33.33;;;4.47;;
31966;SDS011;18496;52.042;6.812;2023-12-20T11:38:49;24.23;;;4.82;;
31966;SDS011;18496;52.042;6.812;2023-12-20T11:41:00;25.70;;;5.25;;
31966;SDS011;18496;52.042;6.812;2023-12-20T11:43:06;20.98;;;3.80;;
31966;SDS011;18496;52.042;6.812;2023-12-20T11:45:11;19.02;;;4.88;;
31966;SDS011;18496;52.042;6.812;2023-12-20T11:47:18;31.95;;;4.88;;
31966;SDS011;18496;52.042;6.812;2023-12-20T11:49:23;32.17;;;3.80;;
31966;SDS011;18496;52.042;6.812;2023-12-20T11:51:27;28.65;;;4.88;;
31966;SDS011;18496;52.042;6.812;2023-12-20T11:53:31;23.13;;;4.30;;
31966;SDS011;18496;52.042;6.812;2023-12-20T11:55:36;19.00;;;4.95;;
31966;SDS011;18496;52.042;6.812;2023-12-20T11:57:40;19.23;;;5.30;;
31966;SDS011;18496;52.042;6.812;2023-12-20T11:59:44;24.77;;;4.75;;
31966;SDS011;18496;52.042;6.812;2023-12-20T12:01:49;16.52;;;4.65;;
31966;SDS011;18496;52.042;6.812;2023-12-20T12:04:05;21.15;;;4.00;;
31966;SDS011;18496;52.042;6.812;2023-12-20T12:06:10;12.20;;;3.85;;
31966;SDS011;18496;52.042;6.812;2023-12-20T12:08:13;25.67;;;4.78;;
31966;SDS011;18496;52.042;6.812;2023-12-20T12:10:17;27.10;;;5.10;;
31966;SDS011;18496;52.042;6.812;2023-12-20T12:12:21;29.10;;;5.00;;
31966;SDS011;18496;52.042;6.812;2023-12-20T12:14:26;19.17;;;4.43;;
31966;SDS011;18496;52.042;6.812;2023-12-20T12:16:30;20.02;;;4.38;;
31966;SDS011;18496;52.042;6.812;2023-12-20T12:18:34;23.55;;;4.95;;
31966;SDS011;18496;52.042;6.812;2023-12-20T12:20:38;16.05;;;4.50;;
31966;SDS011;18496;52.042;6.812;2023-12-20T12:22:42;21.15;;;4.30;;
31966;SDS011;18496;52.042;6.812;2023-12-20T12:24:46;24.73;;;4.78;;
31966;SDS011;18496;52.042;6.812;2023-12-20T12:26:50;17.75;;;3.95;;